createdAt,value
2022-10-17T00:00:44.522Z,3.33
2022-10-17T00:03:30.793Z,5.70
2022-10-17T00:06:17.171Z,4.28
2022-10-17T00:09:06.307Z,2.15
2022-10-17T00:11:52.421Z,6.10
2022-10-17T00:14:39.187Z,1.73
2022-10-17T00:17:25.793Z,4.25
2022-10-17T00:20:30.740Z,3.22
2022-10-17T00:23:35.520Z,4.80
2022-10-17T00:26:23.979Z,5.68
2022-10-17T00:29:10.266Z,1.95
2022-10-17T00:31:57.228Z,2.92
2022-10-17T00:34:43.909Z,5.35
2022-10-17T00:37:30.735Z,2.53
2022-10-17T00:40:16.985Z,1.67
2022-10-17T00:43:11.574Z,2.53
2022-10-17T00:46:00.776Z,4.65
2022-10-17T00:48:48.495Z,2.58
2022-10-17T00:51:36.266Z,5.57
2022-10-17T00:54:27.239Z,1.55
2022-10-17T00:57:13.417Z,1.42
2022-10-17T01:00:00.858Z,5.10
2022-10-17T01:02:47.526Z,1.95
2022-10-17T01:05:33.789Z,4.13
2022-10-17T01:08:23.774Z,1.20
2022-10-17T01:11:23.849Z,4.43
2022-10-17T01:14:13.867Z,2.55
2022-10-17T01:17:10.881Z,2.58
2022-10-17T01:20:13.504Z,3.72
2022-10-17T01:23:11.606Z,1.60
2022-10-17T01:26:08.169Z,5.00
2022-10-17T01:28:57.482Z,4.85
2022-10-17T01:31:47.784Z,1.85
2022-10-17T01:34:36.234Z,3.42
2022-10-17T01:37:28.661Z,1.40
2022-10-17T01:40:25.962Z,4.80
2022-10-17T01:43:15.589Z,2.33
2022-10-17T01:46:05.170Z,1.58
2022-10-17T01:48:51.451Z,3.10
2022-10-17T01:51:43.018Z,0.95
2022-10-17T01:54:50.223Z,4.22
2022-10-17T01:57:38.625Z,1.67
2022-10-17T02:00:26.287Z,2.00
2022-10-17T02:03:18.100Z,4.03
2022-10-17T02:06:04.243Z,0.95
2022-10-17T02:08:50.995Z,4.05
2022-10-17T02:11:38.112Z,1.35
2022-10-17T02:14:42.869Z,1.05
2022-10-17T02:17:44.991Z,1.15
2022-10-17T02:20:43.515Z,1.10
2022-10-17T02:23:39.213Z,2.33
2022-10-17T02:26:27.129Z,1.40
2022-10-17T02:29:15.838Z,4.10
2022-10-17T02:32:06.785Z,0.93
2022-10-17T02:34:54.999Z,1.90
2022-10-17T02:37:42.487Z,2.15
2022-10-17T02:40:31.913Z,4.00
2022-10-17T02:43:18.955Z,2.10
2022-10-17T02:46:05.985Z,0.88
2022-10-17T02:48:53.785Z,1.17
2022-10-17T02:51:46.167Z,2.90
2022-10-17T02:54:35.438Z,2.28
2022-10-17T02:57:32.981Z,1.17
2022-10-17T03:00:20.192Z,2.42
2022-10-17T03:03:26.304Z,1.65
2022-10-17T03:06:12.302Z,1.45
2022-10-17T03:08:58.408Z,1.75
2022-10-17T03:11:44.757Z,1.35
2022-10-17T03:14:30.933Z,1.58
2022-10-17T03:17:17.017Z,5.70
2022-10-17T03:20:04.653Z,4.00
2022-10-17T03:22:51.144Z,2.40
2022-10-17T03:25:37.814Z,1.95
2022-10-17T03:28:42.744Z,1.60
2022-10-17T03:31:29.934Z,2.90
2022-10-17T03:34:18.873Z,4.63
2022-10-17T03:37:05.495Z,2.17
2022-10-17T03:39:53.503Z,1.02
2022-10-17T03:42:39.726Z,1.10
2022-10-17T03:45:25.791Z,2.20
2022-10-17T03:48:12.794Z,15.85
2022-10-17T03:51:00.441Z,1.92
2022-10-17T03:53:47.207Z,3.83
2022-10-17T03:56:33.111Z,3.78
2022-10-17T03:59:22.985Z,1.45
2022-10-17T04:02:18.585Z,4.80
2022-10-17T04:05:23.576Z,1.95
2022-10-17T04:08:09.771Z,12.43
2022-10-17T04:11:24.077Z,4.13
2022-10-17T04:14:12.316Z,1.80
2022-10-17T04:16:59.011Z,2.45
2022-10-17T04:19:46.449Z,2.63
2022-10-17T04:22:35.861Z,4.45
2022-10-17T04:25:22.581Z,3.80
2022-10-17T04:28:10.448Z,1.83
2022-10-17T04:30:58.728Z,1.42
2022-10-17T04:33:49.479Z,2.45
2022-10-17T04:36:35.694Z,3.55
2022-10-17T04:39:22.345Z,2.55
2022-10-17T04:42:08.540Z,3.38
2022-10-17T04:44:54.932Z,3.25
2022-10-17T04:47:42.779Z,2.58
2022-10-17T04:50:29.210Z,6.88
2022-10-17T04:53:41.937Z,1.60
2022-10-17T04:56:28.553Z,2.28
2022-10-17T04:59:14.989Z,1.65
2022-10-17T05:02:03.107Z,2.13
2022-10-17T05:04:50.268Z,1.85
2022-10-17T05:07:40.001Z,6.28
2022-10-17T05:10:41.912Z,1.80
2022-10-17T05:13:27.688Z,3.15
2022-10-17T05:16:13.971Z,3.17
2022-10-17T05:19:04.618Z,3.13
2022-10-17T05:21:59.294Z,5.60
2022-10-17T05:24:48.208Z,6.07
2022-10-17T05:27:34.417Z,2.53
2022-10-17T05:30:20.573Z,1.77
2022-10-17T05:33:08.677Z,5.85
2022-10-17T05:35:54.978Z,6.95
2022-10-17T05:38:41.703Z,5.90
2022-10-17T05:41:29.276Z,7.70
2022-10-17T05:44:15.519Z,8.63
2022-10-17T05:47:05.863Z,5.90
2022-10-17T05:49:52.588Z,9.43
2022-10-17T05:52:52.645Z,7.28
2022-10-17T05:55:38.544Z,10.00
2022-10-17T05:58:45.385Z,8.13
2022-10-17T06:01:41.964Z,8.88
2022-10-17T06:04:28.879Z,11.07
2022-10-17T06:07:15.420Z,8.75
2022-10-17T06:10:03.377Z,9.05
2022-10-17T06:12:49.541Z,8.73
2022-10-17T06:15:35.874Z,8.88
2022-10-17T06:18:28.568Z,8.82
2022-10-17T06:21:17.349Z,7.97
2022-10-17T06:24:06.215Z,8.73
2022-10-17T06:26:55.104Z,9.32
2022-10-17T06:29:41.923Z,8.48
2022-10-17T06:32:29.166Z,8.05
2022-10-17T06:35:15.764Z,8.38
2022-10-17T06:38:01.662Z,8.27
2022-10-17T06:40:47.970Z,9.60
2022-10-17T06:43:34.953Z,9.18
2022-10-17T06:46:40.101Z,7.57
2022-10-17T06:49:28.340Z,7.43
2022-10-17T06:52:18.742Z,7.18
2022-10-17T06:55:33.869Z,6.82
2022-10-17T06:58:39.272Z,7.25
2022-10-17T07:01:46.236Z,6.82
2022-10-17T07:04:33.886Z,6.80
2022-10-17T07:07:19.928Z,8.15
2022-10-17T07:10:08.803Z,5.10
2022-10-17T07:12:56.862Z,5.88
2022-10-17T07:15:43.650Z,5.97
2022-10-17T07:18:29.635Z,6.28
2022-10-17T07:21:15.840Z,5.60
2022-10-17T07:24:02.870Z,6.50
2022-10-17T07:26:49.485Z,7.00
2022-10-17T07:29:36.167Z,7.28
2022-10-17T07:32:31.491Z,5.38
2022-10-17T07:35:18.949Z,4.80
2022-10-17T07:38:05.374Z,4.25
2022-10-17T07:40:55.783Z,5.22
2022-10-17T07:43:43.162Z,4.07
2022-10-17T07:46:29.994Z,3.92
2022-10-17T07:49:16.465Z,3.88
2022-10-17T07:52:07.956Z,4.95
2022-10-17T07:54:53.941Z,4.70
2022-10-17T07:57:40.516Z,4.90
2022-10-17T08:00:27.529Z,4.22
2022-10-17T08:03:14.113Z,5.95
2022-10-17T08:06:01.452Z,5.40
2022-10-17T08:08:47.515Z,5.53
2022-10-17T08:11:33.587Z,5.30
2022-10-17T08:14:20.025Z,5.05
2022-10-17T08:17:06.285Z,5.97
2022-10-17T08:19:52.731Z,5.07
2022-10-17T08:22:39.157Z,6.18
2022-10-17T08:25:25.285Z,6.20
2022-10-17T08:28:11.919Z,6.90
2022-10-17T08:31:07.682Z,7.63
2022-10-17T08:33:56.312Z,6.53
2022-10-17T08:36:42.649Z,6.70
2022-10-17T08:46:53.827Z,6.82
2022-10-17T08:49:52.878Z,6.38
2022-10-17T08:52:47.833Z,7.95
2022-10-17T08:55:45.857Z,10.48
2022-10-17T08:58:34.070Z,7.28
2022-10-17T09:01:32.394Z,6.45
2022-10-17T09:04:37.115Z,6.82
2022-10-17T09:07:32.759Z,7.30
2022-10-17T09:10:32.102Z,5.97
2022-10-17T09:13:24.524Z,5.82
2022-10-17T09:16:28.303Z,6.15
2022-10-17T09:19:21.594Z,7.00
2022-10-17T09:22:17.425Z,5.82
2022-10-17T09:25:07.052Z,5.65
2022-10-17T09:27:54.834Z,6.18
2022-10-17T09:30:46.770Z,6.60
2022-10-17T09:33:53.269Z,6.20
2022-10-17T09:36:40.880Z,6.00
2022-10-17T09:39:33.969Z,6.35
2022-10-17T09:42:29.935Z,6.72
2022-10-17T09:45:25.108Z,69.32
2022-10-17T09:48:27.018Z,5.75
2022-10-17T09:54:23.489Z,5.85
2022-10-17T09:57:11.117Z,4.80
2022-10-17T09:59:59.373Z,5.05
2022-10-17T10:02:45.752Z,4.38
2022-10-17T10:05:32.135Z,3.85
2022-10-17T10:08:21.567Z,3.97
2022-10-17T10:11:13.334Z,5.20
2022-10-17T10:16:46.383Z,4.20
2022-10-17T10:19:34.170Z,4.13
2022-10-17T10:22:23.708Z,4.00
2022-10-17T10:25:17.185Z,3.45
2022-10-17T10:28:09.681Z,3.30
2022-10-17T10:30:56.497Z,4.95
2022-10-17T10:33:49.361Z,3.78
2022-10-17T10:36:44.048Z,3.22
2022-10-17T10:39:40.461Z,3.25
2022-10-17T10:42:39.721Z,3.60
2022-10-17T10:45:48.019Z,3.20
2022-10-17T10:48:35.638Z,2.90
2022-10-17T10:51:24.009Z,3.40
2022-10-17T10:54:14.636Z,3.70
2022-10-17T10:57:03.439Z,2.95
2022-10-17T11:00:02.741Z,7.15
2022-10-17T11:02:53.949Z,3.97
2022-10-17T11:05:58.102Z,3.05
2022-10-17T11:08:47.868Z,2.55
2022-10-17T11:11:39.367Z,3.03
2022-10-17T11:14:37.837Z,2.10
2022-10-17T11:17:42.466Z,3.03
2022-10-17T11:20:34.527Z,3.00
2022-10-17T11:23:26.501Z,2.55
2022-10-17T11:28:59.300Z,1.92
2022-10-17T11:31:50.334Z,2.00
2022-10-17T11:34:39.650Z,3.97
2022-10-17T11:37:29.441Z,2.05
2022-10-17T11:40:26.450Z,1.90
2022-10-17T11:43:27.184Z,2.90
2022-10-17T11:46:16.334Z,1.50
2022-10-17T11:49:07.222Z,1.73
2022-10-17T11:52:11.214Z,1.40
2022-10-17T11:55:07.517Z,2.28
2022-10-17T11:58:07.201Z,1.25
2022-10-17T12:00:59.701Z,1.67
2022-10-17T12:03:59.245Z,0.90
2022-10-17T12:06:53.395Z,1.10
2022-10-17T12:09:47.265Z,1.63
2022-10-17T12:12:34.632Z,1.40
2022-10-17T12:15:20.757Z,1.90
2022-10-17T12:18:16.473Z,2.15
2022-10-17T12:21:02.656Z,2.15
2022-10-17T12:23:53.200Z,1.45
2022-10-17T12:26:39.324Z,1.50
2022-10-17T12:29:28.876Z,1.65
2022-10-17T12:32:15.617Z,1.50
2022-10-17T12:35:02.088Z,1.70
2022-10-17T12:37:48.347Z,1.20
2022-10-17T12:40:39.846Z,1.33
2022-10-17T12:43:53.729Z,1.88
2022-10-17T12:46:43.783Z,2.03
2022-10-17T12:49:38.340Z,1.23
2022-10-17T12:52:35.657Z,1.50
2022-10-17T12:55:26.016Z,2.50
2022-10-17T12:58:15.054Z,1.83
2022-10-17T13:01:23.037Z,1.55
2022-10-17T13:04:11.452Z,1.38
2022-10-17T13:07:04.553Z,1.60
2022-10-17T13:09:51.819Z,1.67
2022-10-17T13:12:41.204Z,1.45
2022-10-17T13:15:28.088Z,1.73
2022-10-17T13:18:26.846Z,2.10
2022-10-17T13:21:16.293Z,1.73
2022-10-17T13:24:19.616Z,1.48
2022-10-17T13:27:06.915Z,1.83
2022-10-17T13:29:53.070Z,2.00
2022-10-17T13:32:42.355Z,2.03
2022-10-17T13:35:58.783Z,1.90
2022-10-17T13:38:43.068Z,1.85
2022-10-17T13:41:37.469Z,2.28
2022-10-17T13:44:27.794Z,2.20
2022-10-17T13:47:24.683Z,1.85
2022-10-17T13:50:43.179Z,1.90
2022-10-17T13:53:36.727Z,1.90
2022-10-17T13:56:29.231Z,1.92
2022-10-17T13:59:22.398Z,2.97
2022-10-17T14:02:15.049Z,2.17
2022-10-17T14:05:19.484Z,2.45
2022-10-17T14:08:16.921Z,1.98
2022-10-17T14:11:16.305Z,2.08
2022-10-17T14:14:04.027Z,2.13
2022-10-17T14:16:50.082Z,2.10
2022-10-17T14:19:37.899Z,2.55
2022-10-17T14:22:23.697Z,2.00
2022-10-17T14:25:29.040Z,2.65
2022-10-17T14:28:16.098Z,1.92
2022-10-17T14:31:20.830Z,2.60
2022-10-17T14:34:08.969Z,2.53
2022-10-17T14:36:54.960Z,2.20
2022-10-17T14:39:41.251Z,1.83
2022-10-17T14:42:28.493Z,5.32
2022-10-17T14:45:37.304Z,4.78
2022-10-17T14:48:23.700Z,3.13
2022-10-17T14:51:16.449Z,3.28
2022-10-17T14:54:23.031Z,2.35
2022-10-17T14:57:15.143Z,3.00
2022-10-17T15:00:01.300Z,2.75
2022-10-17T15:02:47.894Z,2.88
2022-10-17T15:05:35.179Z,2.35
2022-10-17T15:08:22.238Z,2.78
2022-10-17T15:11:10.052Z,2.65
2022-10-17T15:13:56.260Z,3.08
2022-10-17T15:16:42.623Z,2.40
2022-10-17T15:19:37.725Z,6.20
2022-10-17T15:22:25.323Z,3.80
2022-10-17T15:25:11.765Z,3.45
2022-10-17T15:27:58.079Z,4.15
2022-10-17T15:30:44.605Z,3.78
2022-10-17T15:33:31.566Z,3.90
2022-10-17T15:36:22.800Z,3.17
2022-10-17T15:39:09.962Z,3.53
2022-10-17T15:41:56.652Z,4.00
2022-10-17T15:44:44.692Z,2.88
2022-10-17T15:47:35.423Z,3.95
2022-10-17T15:50:22.429Z,2.95
2022-10-17T15:53:11.766Z,3.25
2022-10-17T15:55:59.020Z,3.97
2022-10-17T15:58:45.677Z,8.52
2022-10-17T16:01:33.418Z,4.93
2022-10-17T16:04:19.823Z,3.90
2022-10-17T16:07:05.737Z,3.65
2022-10-17T16:09:52.105Z,4.85
2022-10-17T16:12:41.506Z,3.70
2022-10-17T16:15:28.143Z,4.00
2022-10-17T16:18:17.533Z,3.35
2022-10-17T16:21:03.956Z,4.72
2022-10-17T16:23:50.091Z,3.75
2022-10-17T16:26:36.345Z,4.20
2022-10-17T16:29:22.673Z,4.32
2022-10-17T16:32:09.648Z,3.75
2022-10-17T16:34:55.739Z,4.65
2022-10-17T16:37:41.894Z,3.13
2022-10-17T16:40:48.675Z,3.70
2022-10-17T16:43:36.541Z,3.88
2022-10-17T16:46:23.331Z,3.85
2022-10-17T16:49:09.976Z,3.95
2022-10-17T16:52:01.421Z,3.53
2022-10-17T16:54:47.623Z,3.97
2022-10-17T16:57:33.854Z,3.55
2022-10-17T17:00:21.015Z,4.50
2022-10-17T17:03:07.474Z,3.97
2022-10-17T17:05:53.757Z,4.03
2022-10-17T17:08:40.061Z,4.68
2022-10-17T17:11:27.467Z,5.25
2022-10-17T17:14:13.923Z,4.63
2022-10-17T17:17:00.174Z,4.50
2022-10-17T17:19:46.975Z,5.40
2022-10-17T17:22:32.898Z,4.85
2022-10-17T17:25:19.206Z,4.47
2022-10-17T17:28:06.761Z,4.32
2022-10-17T17:30:53.062Z,5.28
2022-10-17T17:33:42.628Z,4.28
2022-10-17T17:36:30.454Z,5.53
2022-10-17T17:39:16.786Z,5.53
2022-10-17T17:42:03.191Z,5.75
2022-10-17T17:44:49.802Z,4.70
2022-10-17T17:47:35.799Z,4.82
2022-10-17T17:50:23.184Z,5.85
2022-10-17T17:53:09.940Z,7.10
2022-10-17T17:56:06.677Z,7.13
2022-10-17T17:58:54.534Z,6.05
2022-10-17T18:01:40.928Z,6.78
2022-10-17T18:04:28.375Z,8.77
2022-10-17T18:07:14.609Z,8.30
2022-10-17T18:10:00.868Z,7.90
2022-10-17T18:12:47.247Z,8.10
2022-10-17T18:15:33.880Z,7.78
2022-10-17T18:18:20.112Z,7.55
2022-10-17T18:21:06.796Z,7.68
2022-10-17T18:23:53.020Z,7.18
2022-10-17T18:26:39.209Z,9.88
2022-10-17T18:29:46.610Z,10.57
2022-10-17T18:32:33.066Z,11.40
2022-10-17T18:35:19.249Z,27.65
2022-10-17T18:38:05.336Z,18.83
2022-10-17T18:41:01.689Z,21.45
2022-10-17T18:43:48.454Z,13.95
2022-10-17T18:46:36.553Z,16.80
2022-10-17T18:49:23.360Z,13.88
2022-10-17T18:52:09.300Z,12.77
2022-10-17T18:54:55.581Z,12.40
2022-10-17T18:57:44.863Z,10.07
2022-10-17T19:00:31.323Z,10.93
2022-10-17T19:03:17.975Z,12.57
2022-10-17T19:06:07.505Z,11.63
2022-10-17T19:08:53.554Z,11.05
2022-10-17T19:11:40.174Z,11.57
2022-10-17T19:14:26.735Z,16.15
2022-10-17T19:17:12.899Z,18.92
2022-10-17T19:19:59.907Z,15.80
2022-10-17T19:22:45.719Z,19.13
2022-10-17T19:25:33.315Z,13.32
2022-10-17T19:28:19.490Z,13.40
2022-10-17T19:31:05.792Z,14.02
2022-10-17T19:33:52.890Z,15.05
2022-10-17T19:36:40.345Z,17.65
2022-10-17T19:39:26.795Z,9.52
2022-10-17T19:42:13.147Z,15.20
2022-10-17T19:44:59.405Z,14.90
2022-10-17T19:47:45.815Z,15.43
2022-10-17T19:50:31.941Z,13.18
2022-10-17T19:53:18.150Z,17.52
2022-10-17T19:56:29.446Z,24.25
2022-10-17T19:59:16.365Z,16.48
2022-10-17T20:02:02.615Z,24.80
2022-10-17T20:05:00.034Z,26.38
2022-10-17T20:07:52.772Z,23.70
2022-10-17T20:10:39.404Z,27.33
2022-10-17T20:13:25.853Z,17.98
2022-10-17T20:16:14.504Z,19.80
2022-10-17T20:19:07.619Z,16.25
2022-10-17T20:21:53.544Z,14.48
2022-10-17T20:24:42.941Z,16.60
2022-10-17T20:27:29.197Z,12.52
2022-10-17T20:30:15.568Z,13.15
2022-10-17T20:33:01.864Z,14.65
2022-10-17T20:35:48.205Z,12.27
2022-10-17T20:38:34.246Z,10.80
2022-10-17T20:41:20.624Z,11.77
2022-10-17T20:44:11.205Z,12.77
2022-10-17T20:47:02.229Z,12.95
2022-10-17T20:49:49.195Z,22.83
2022-10-17T20:52:39.228Z,16.13
2022-10-17T20:55:44.184Z,12.02
2022-10-17T20:58:30.561Z,7.63
2022-10-17T21:01:17.486Z,11.77
2022-10-17T21:04:27.022Z,13.13
2022-10-17T21:07:11.164Z,16.88
2022-10-17T21:10:00.324Z,5.35
2022-10-17T21:12:54.629Z,12.27
2022-10-17T21:15:45.825Z,12.65
2022-10-17T21:18:31.914Z,11.23
2022-10-17T21:21:20.387Z,12.13
2022-10-17T21:24:09.182Z,10.27
2022-10-17T21:26:57.233Z,4.10
2022-10-17T21:29:43.295Z,12.65
2022-10-17T21:32:50.513Z,13.23
2022-10-17T21:35:35.815Z,11.45
2022-10-17T21:38:22.090Z,6.45
2022-10-17T21:41:10.769Z,13.68
2022-10-17T21:44:00.292Z,12.63
2022-10-17T21:46:47.063Z,5.82
2022-10-17T21:49:34.227Z,11.85
2022-10-17T21:52:23.066Z,8.18
2022-10-17T21:55:09.196Z,6.90
2022-10-17T21:57:55.150Z,13.45
2022-10-17T22:00:41.512Z,13.85
2022-10-17T22:03:28.598Z,11.68
2022-10-17T22:06:38.885Z,11.50
2022-10-17T22:09:25.953Z,12.40
2022-10-17T22:12:12.470Z,13.00
2022-10-17T22:15:01.641Z,6.43
2022-10-17T22:17:48.026Z,3.05
2022-10-17T22:20:41.114Z,11.20
2022-10-17T22:23:27.905Z,7.43
2022-10-17T22:26:14.747Z,8.80
2022-10-17T22:29:00.982Z,5.47
2022-10-17T22:31:48.221Z,6.70
2022-10-17T22:34:52.819Z,7.38
2022-10-17T22:37:41.742Z,2.53
2022-10-17T22:40:28.274Z,7.15
2022-10-17T22:43:14.694Z,3.30
2022-10-17T22:46:02.206Z,1.88
2022-10-17T22:48:48.794Z,7.30
2022-10-17T22:51:34.880Z,5.80
2022-10-17T22:54:21.115Z,5.78
2022-10-17T22:57:07.413Z,4.70
2022-10-17T22:59:53.724Z,2.05
2022-10-17T23:02:40.484Z,5.50
2022-10-17T23:05:26.934Z,3.97
2022-10-17T23:08:14.234Z,1.67
2022-10-17T23:11:00.549Z,6.00
2022-10-17T23:13:55.584Z,7.32
2022-10-17T23:16:44.789Z,5.75
2022-10-17T23:19:32.624Z,3.25
2022-10-17T23:22:19.125Z,7.95
2022-10-17T23:25:05.977Z,2.67
2022-10-17T23:27:52.289Z,3.17
2022-10-17T23:30:39.177Z,2.58
2022-10-17T23:33:25.147Z,4.32
2022-10-17T23:36:12.643Z,7.63
2022-10-17T23:38:59.367Z,2.25
2022-10-17T23:41:45.396Z,5.30
2022-10-17T23:44:31.628Z,2.53
2022-10-17T23:47:17.912Z,2.95
2022-10-17T23:50:05.040Z,2.40
2022-10-17T23:52:51.046Z,6.82
2022-10-17T23:55:37.157Z,2.40
2022-10-17T23:58:23.244Z,3.33
